sensor_id;sensor_type;location;lat;lon;timestamp;pressure;altitude;pressure_sealevel;temperature;humidity
53550;BME280;67273;52.914;-0.982;2023-02-12T00:00:58;103421.25;;;17.95;41.02
53550;BME280;67273;52.914;-0.982;2023-02-12T00:03:23;103420.56;;;17.93;41.07
53550;BME280;67273;52.914;-0.982;2023-02-12T00:05:49;103442.16;;;17.95;41.02
53550;BME280;67273;52.914;-0.982;2023-02-12T00:08:15;103439.63;;;17.93;41.12
53550;BME280;67273;52.914;-0.982;2023-02-12T00:10:42;103437.91;;;17.92;41.06
53550;BME280;67273;52.914;-0.982;2023-02-12T00:13:09;103424.47;;;17.91;41.15
53550;BME280;67273;52.914;-0.982;2023-02-12T00:15:37;103421.75;;;17.91;41.03
53550;BME280;67273;52.914;-0.982;2023-02-12T00:18:03;103419.22;;;17.89;41.16
53550;BME280;67273;52.914;-0.982;2023-02-12T00:20:29;103414.78;;;17.88;40.98
53550;BME280;67273;52.914;-0.982;2023-02-12T00:22:55;103415.78;;;17.87;40.82
53550;BME280;67273;52.914;-0.982;2023-02-12T00:25:20;103420.22;;;17.88;41.25
53550;BME280;67273;52.914;-0.982;2023-02-12T00:27:48;103413.06;;;17.87;41.09
53550;BME280;67273;52.914;-0.982;2023-02-12T00:30:14;103418.50;;;17.87;40.99
53550;BME280;67273;52.914;-0.982;2023-02-12T00:32:39;103406.06;;;17.84;41.12
53550;BME280;67273;52.914;-0.982;2023-02-12T00:35:06;103415.06;;;17.85;41.12
53550;BME280;67273;52.914;-0.982;2023-02-12T00:37:32;103416.09;;;17.84;41.00
53550;BME280;67273;52.914;-0.982;2023-02-12T00:39:58;103417.13;;;17.83;41.54
53550;BME280;67273;52.914;-0.982;2023-02-12T00:42:23;103410.84;;;17.82;41.06
53550;BME280;67273;52.914;-0.982;2023-02-12T00:44:50;103402.00;;;17.80;41.16
53550;BME280;67273;52.914;-0.982;2023-02-12T00:47:16;103402.84;;;17.81;41.15
53550;BME280;67273;52.914;-0.982;2023-02-12T00:49:42;103414.72;;;17.80;41.22
53550;BME280;67273;52.914;-0.982;2023-02-12T00:52:08;103413.88;;;17.79;41.08
53550;BME280;67273;52.914;-0.982;2023-02-12T00:54:34;103408.59;;;17.78;41.07
53550;BME280;67273;52.914;-0.982;2023-02-12T00:56:59;103409.63;;;17.77;41.24
53550;BME280;67273;52.914;-0.982;2023-02-12T00:59:28;103406.91;;;17.77;41.28
53550;BME280;67273;52.914;-0.982;2023-02-12T01:01:57;103412.34;;;17.77;41.15
53550;BME280;67273;52.914;-0.982;2023-02-12T01:04:23;103408.94;;;17.75;41.30
53550;BME280;67273;52.914;-0.982;2023-02-12T01:06:49;103403.50;;;17.75;41.00
53550;BME280;67273;52.914;-0.982;2023-02-12T01:09:14;103407.25;;;17.74;41.28
53550;BME280;67273;52.914;-0.982;2023-02-12T01:11:40;103409.97;;;17.74;41.09
53550;BME280;67273;52.914;-0.982;2023-02-12T01:14:07;103410.97;;;17.73;41.35
53550;BME280;67273;52.914;-0.982;2023-02-12T01:16:33;103411.13;;;17.71;41.27
53550;BME280;67273;52.914;-0.982;2023-02-12T01:19:03;103407.56;;;17.71;41.39
53550;BME280;67273;52.914;-0.982;2023-02-12T01:21:31;103419.47;;;17.70;41.42
53550;BME280;67273;52.914;-0.982;2023-02-12T01:23:57;103415.88;;;17.69;41.34
53550;BME280;67273;52.914;-0.982;2023-02-12T01:26:24;103419.63;;;17.68;41.43
53550;BME280;67273;52.914;-0.982;2023-02-12T01:28:52;103418.75;;;17.67;41.37
53550;BME280;67273;52.914;-0.982;2023-02-12T01:31:20;103422.50;;;17.66;41.47
53550;BME280;67273;52.914;-0.982;2023-02-12T01:33:47;103420.78;;;17.65;41.32
53550;BME280;67273;52.914;-0.982;2023-02-12T01:36:15;103408.25;;;17.64;41.23
53550;BME280;67273;52.914;-0.982;2023-02-12T01:38:40;103412.81;;;17.64;41.47
53550;BME280;67273;52.914;-0.982;2023-02-12T01:41:08;103410.28;;;17.62;41.30
53550;BME280;67273;52.914;-0.982;2023-02-12T01:43:35;103416.72;;;17.61;41.42
53550;BME280;67273;52.914;-0.982;2023-02-12T01:46:04;103420.44;;;17.60;41.32
53550;BME280;67273;52.914;-0.982;2023-02-12T01:48:32;103407.72;;;17.61;41.40
53550;BME280;67273;52.914;-0.982;2023-02-12T01:51:00;103411.44;;;17.60;41.38
53550;BME280;67273;52.914;-0.982;2023-02-12T01:53:33;103413.31;;;17.59;41.47
53550;BME280;67273;52.914;-0.982;2023-02-12T01:56:01;103412.47;;;17.59;41.51
53550;BME280;67273;52.914;-0.982;2023-02-12T01:58:29;103404.47;;;17.57;41.46
53550;BME280;67273;52.914;-0.982;2023-02-12T02:00:57;103408.19;;;17.56;41.23
53550;BME280;67273;52.914;-0.982;2023-02-12T02:03:24;103411.75;;;17.57;41.34
53550;BME280;67273;52.914;-0.982;2023-02-12T02:05:55;103397.50;;;17.55;41.43
53550;BME280;67273;52.914;-0.982;2023-02-12T02:08:22;103402.94;;;17.55;41.55
53550;BME280;67273;52.914;-0.982;2023-02-12T02:10:49;103400.38;;;17.53;41.37
53550;BME280;67273;52.914;-0.982;2023-02-12T02:13:16;103410.25;;;17.54;41.52
53550;BME280;67273;52.914;-0.982;2023-02-12T02:16:10;103404.13;;;17.52;41.47
53550;BME280;67273;52.914;-0.982;2023-02-12T02:18:42;103401.41;;;17.52;41.62
53550;BME280;67273;52.914;-0.982;2023-02-12T02:21:39;103398.69;;;17.52;41.41
53550;BME280;67273;52.914;-0.982;2023-02-12T02:24:25;103400.72;;;17.50;41.48
53550;BME280;67273;52.914;-0.982;2023-02-12T02:27:21;103390.84;;;17.49;41.40
53550;BME280;67273;52.914;-0.982;2023-02-12T02:30:26;103393.56;;;17.49;41.61
53550;BME280;67273;52.914;-0.982;2023-02-12T02:33:05;103397.28;;;17.48;41.50
53550;BME280;67273;52.914;-0.982;2023-02-12T02:35:39;103389.31;;;17.46;41.51
53550;BME280;67273;52.914;-0.982;2023-02-12T02:38:17;103395.59;;;17.47;41.49
53550;BME280;67273;52.914;-0.982;2023-02-12T02:40:50;103403.06;;;17.45;41.51
53550;BME280;67273;52.914;-0.982;2023-02-12T02:43:24;103392.22;;;17.45;41.45
53550;BME280;67273;52.914;-0.982;2023-02-12T02:45:55;103393.22;;;17.44;41.45
53550;BME280;67273;52.914;-0.982;2023-02-12T02:48:25;103385.06;;;17.44;41.56
53550;BME280;67273;52.914;-0.982;2023-02-12T02:50:56;103396.97;;;17.43;41.59
53550;BME280;67273;52.914;-0.982;2023-02-12T02:53:29;103403.41;;;17.42;41.46
53550;BME280;67273;52.914;-0.982;2023-02-12T02:55:57;103393.53;;;17.41;41.51
53550;BME280;67273;52.914;-0.982;2023-02-12T02:58:26;103399.84;;;17.41;41.57
53550;BME280;67273;52.914;-0.982;2023-02-12T03:00:58;103397.28;;;17.40;41.65
53550;BME280;67273;52.914;-0.982;2023-02-12T03:03:29;103398.28;;;17.39;41.54
53550;BME280;67273;52.914;-0.982;2023-02-12T03:06:01;103396.59;;;17.38;41.75
53550;BME280;67273;52.914;-0.982;2023-02-12T03:08:33;103396.59;;;17.38;41.53
53550;BME280;67273;52.914;-0.982;2023-02-12T03:11:06;103393.00;;;17.37;41.39
53550;BME280;67273;52.914;-0.982;2023-02-12T03:13:40;103396.59;;;17.38;41.47
53550;BME280;67273;52.914;-0.982;2023-02-12T03:16:19;103395.72;;;17.37;41.66
53550;BME280;67273;52.914;-0.982;2023-02-12T03:18:52;103390.47;;;17.36;41.43
53550;BME280;67273;52.914;-0.982;2023-02-12T03:21:27;103386.88;;;17.35;41.72
53550;BME280;67273;52.914;-0.982;2023-02-12T03:24:01;103395.91;;;17.36;41.80
53550;BME280;67273;52.914;-0.982;2023-02-12T03:26:38;103393.34;;;17.34;41.66
53550;BME280;67273;52.914;-0.982;2023-02-12T03:29:05;103398.78;;;17.34;41.75
53550;BME280;67273;52.914;-0.982;2023-02-12T03:31:40;103392.47;;;17.34;41.56
53550;BME280;67273;52.914;-0.982;2023-02-12T03:34:23;103390.81;;;17.33;41.31
53550;BME280;67273;52.914;-0.982;2023-02-12T03:36:58;103400.63;;;17.34;41.39
53550;BME280;67273;52.914;-0.982;2023-02-12T03:39:32;103398.09;;;17.32;41.75
53550;BME280;67273;52.914;-0.982;2023-02-12T03:42:05;103401.81;;;17.31;41.67
53550;BME280;67273;52.914;-0.982;2023-02-12T03:44:43;103393.84;;;17.29;41.86
53550;BME280;67273;52.914;-0.982;2023-02-12T03:47:20;103388.41;;;17.29;41.59
53550;BME280;67273;52.914;-0.982;2023-02-12T03:49:52;103389.41;;;17.28;41.70
53550;BME280;67273;52.914;-0.982;2023-02-12T03:52:22;103393.00;;;17.29;41.53
53550;BME280;67273;52.914;-0.982;2023-02-12T03:54:47;103395.56;;;17.31;41.75
53550;BME280;67273;52.914;-0.982;2023-02-12T03:57:17;103395.88;;;17.27;41.50
53550;BME280;67273;52.914;-0.982;2023-02-12T03:59:44;103401.31;;;17.27;41.78
53550;BME280;67273;52.914;-0.982;2023-02-12T04:02:11;103414.72;;;17.29;41.76
53550;BME280;67273;52.914;-0.982;2023-02-12T04:04:38;103409.63;;;17.26;41.58
53550;BME280;67273;52.914;-0.982;2023-02-12T04:07:04;103403.34;;;17.25;41.40
53550;BME280;67273;52.914;-0.982;2023-02-12T04:09:31;103408.78;;;17.25;41.55
53550;BME280;67273;52.914;-0.982;2023-02-12T04:12:20;103409.78;;;17.24;41.75
53550;BME280;67273;52.914;-0.982;2023-02-12T04:14:54;103416.94;;;17.25;41.72
53550;BME280;67273;52.914;-0.982;2023-02-12T04:17:29;103421.47;;;17.25;41.65
53550;BME280;67273;52.914;-0.982;2023-02-12T04:20:06;103413.34;;;17.25;41.65
53550;BME280;67273;52.914;-0.982;2023-02-12T04:22:45;103412.50;;;17.24;41.76
53550;BME280;67273;52.914;-0.982;2023-02-12T04:25:33;103422.66;;;17.22;41.67
53550;BME280;67273;52.914;-0.982;2023-02-12T04:28:07;103425.38;;;17.22;41.73
53550;BME280;67273;52.914;-0.982;2023-02-12T04:30:40;103423.66;;;17.21;41.53
53550;BME280;67273;52.914;-0.982;2023-02-12T04:33:11;103419.28;;;17.20;41.68
53550;BME280;67273;52.914;-0.982;2023-02-12T04:35:47;103421.84;;;17.22;41.72
53550;BME280;67273;52.914;-0.982;2023-02-12T04:38:18;103409.41;;;17.19;41.51
53550;BME280;67273;52.914;-0.982;2023-02-12T04:40:47;103414.84;;;17.19;41.73
53550;BME280;67273;52.914;-0.982;2023-02-12T04:43:13;103415.72;;;17.20;41.63
53550;BME280;67273;52.914;-0.982;2023-02-12T04:45:39;103414.84;;;17.19;41.78
53550;BME280;67273;52.914;-0.982;2023-02-12T04:48:05;103419.44;;;17.19;41.75
53550;BME280;67273;52.914;-0.982;2023-02-12T04:50:37;103411.28;;;17.19;41.66
53550;BME280;67273;52.914;-0.982;2023-02-12T04:53:05;103406.84;;;17.18;41.62
53550;BME280;67273;52.914;-0.982;2023-02-12T04:55:30;103409.56;;;17.18;41.58
53550;BME280;67273;52.914;-0.982;2023-02-12T04:57:56;103417.72;;;17.18;41.68
53550;BME280;67273;52.914;-0.982;2023-02-12T05:00:22;103408.72;;;17.17;41.64
53550;BME280;67273;52.914;-0.982;2023-02-12T05:02:48;103403.44;;;17.16;41.67
53550;BME280;67273;52.914;-0.982;2023-02-12T05:05:13;103408.03;;;17.15;41.60
53550;BME280;67273;52.914;-0.982;2023-02-12T05:07:39;103408.03;;;17.15;41.72
53550;BME280;67273;52.914;-0.982;2023-02-12T05:10:08;103405.31;;;17.15;41.58
53550;BME280;67273;52.914;-0.982;2023-02-12T05:12:33;103408.03;;;17.15;41.78
53550;BME280;67273;52.914;-0.982;2023-02-12T05:14:59;103411.75;;;17.14;41.90
53550;BME280;67273;52.914;-0.982;2023-02-12T05:17:25;103411.75;;;17.14;41.88
53550;BME280;67273;52.914;-0.982;2023-02-12T05:19:51;103411.75;;;17.14;41.66
53550;BME280;67273;52.914;-0.982;2023-02-12T05:22:17;103406.31;;;17.14;41.57
53550;BME280;67273;52.914;-0.982;2023-02-12T05:24:43;103404.63;;;17.13;41.53
53550;BME280;67273;52.914;-0.982;2023-02-12T05:27:10;103411.75;;;17.14;41.82
53550;BME280;67273;52.914;-0.982;2023-02-12T05:29:36;103407.34;;;17.13;41.73
53550;BME280;67273;52.914;-0.982;2023-02-12T05:32:02;103409.22;;;17.13;41.48
53550;BME280;67273;52.914;-0.982;2023-02-12T05:34:28;103409.22;;;17.13;41.83
53550;BME280;67273;52.914;-0.982;2023-02-12T05:36:54;103406.66;;;17.11;41.67
53550;BME280;67273;52.914;-0.982;2023-02-12T05:39:20;103412.09;;;17.11;41.54
53550;BME280;67273;52.914;-0.982;2023-02-12T05:41:46;103404.94;;;17.10;41.80
53550;BME280;67273;52.914;-0.982;2023-02-12T05:44:13;103408.50;;;17.10;41.75
53550;BME280;67273;52.914;-0.982;2023-02-12T05:46:39;103405.78;;;17.10;41.83
53550;BME280;67273;52.914;-0.982;2023-02-12T05:49:05;103405.78;;;17.10;41.66
53550;BME280;67273;52.914;-0.982;2023-02-12T05:51:31;103404.09;;;17.09;41.47
53550;BME280;67273;52.914;-0.982;2023-02-12T05:53:58;103410.38;;;17.10;41.85
53550;BME280;67273;52.914;-0.982;2023-02-12T05:56:26;103409.53;;;17.09;41.73
53550;BME280;67273;52.914;-0.982;2023-02-12T05:58:54;103405.97;;;17.09;41.85
53550;BME280;67273;52.914;-0.982;2023-02-12T06:01:24;103407.81;;;17.08;41.60
53550;BME280;67273;52.914;-0.982;2023-02-12T06:03:50;103414.13;;;17.09;41.66
53550;BME280;67273;52.914;-0.982;2023-02-12T06:06:16;103415.97;;;17.08;41.73
53550;BME280;67273;52.914;-0.982;2023-02-12T06:08:42;103417.84;;;17.08;41.51
53550;BME280;67273;52.914;-0.982;2023-02-12T06:11:11;103413.41;;;17.07;41.67
53550;BME280;67273;52.914;-0.982;2023-02-12T06:13:37;103406.13;;;17.07;41.65
53550;BME280;67273;52.914;-0.982;2023-02-12T06:16:04;103404.41;;;17.06;41.64
53550;BME280;67273;52.914;-0.982;2023-02-12T06:18:33;103403.41;;;17.07;41.68
53550;BME280;67273;52.914;-0.982;2023-02-12T06:21:02;103403.59;;;17.06;41.45
53550;BME280;67273;52.914;-0.982;2023-02-12T06:23:27;103400.88;;;17.06;41.64
53550;BME280;67273;52.914;-0.982;2023-02-12T06:25:55;103396.44;;;17.05;41.63
53550;BME280;67273;52.914;-0.982;2023-02-12T06:28:21;103398.16;;;17.06;41.82
53550;BME280;67273;52.914;-0.982;2023-02-12T06:30:47;103404.25;;;17.08;42.03
53550;BME280;67273;52.914;-0.982;2023-02-12T06:33:13;103399.19;;;17.13;41.71
53550;BME280;67273;52.914;-0.982;2023-02-12T06:35:40;103397.53;;;17.20;41.24
53550;BME280;67273;52.914;-0.982;2023-02-12T06:38:06;103390.44;;;17.27;41.37
53550;BME280;67273;52.914;-0.982;2023-02-12T06:40:32;103393.53;;;17.33;41.17
53550;BME280;67273;52.914;-0.982;2023-02-12T06:42:58;103378.72;;;17.35;41.05
53550;BME280;67273;52.914;-0.982;2023-02-12T06:45:23;103390.81;;;17.41;41.09
53550;BME280;67273;52.914;-0.982;2023-02-12T06:47:49;103389.31;;;17.46;40.92
53550;BME280;67273;52.914;-0.982;2023-02-12T06:50:16;103382.38;;;17.52;40.76
53550;BME280;67273;52.914;-0.982;2023-02-12T06:52:43;103386.28;;;17.58;40.65
53550;BME280;67273;52.914;-0.982;2023-02-12T06:55:09;103383.94;;;17.63;40.48
53550;BME280;67273;52.914;-0.982;2023-02-12T06:57:35;103382.41;;;17.68;40.71
53550;BME280;67273;52.914;-0.982;2023-02-12T07:00:00;103389.22;;;17.73;40.51
53550;BME280;67273;52.914;-0.982;2023-02-12T07:02:26;103393.31;;;17.77;40.37
53550;BME280;67273;52.914;-0.982;2023-02-12T07:04:52;103386.53;;;17.81;40.42
53550;BME280;67273;52.914;-0.982;2023-02-12T07:07:18;103391.63;;;17.84;40.21
53550;BME280;67273;52.914;-0.982;2023-02-12T07:09:45;103388.78;;;17.85;40.61
53550;BME280;67273;52.914;-0.982;2023-02-12T07:12:11;103395.91;;;17.86;40.55
53550;BME280;67273;52.914;-0.982;2023-02-12T07:14:36;103405.63;;;17.89;40.20
53550;BME280;67273;52.914;-0.982;2023-02-12T07:17:02;103402.91;;;17.89;40.14
53550;BME280;67273;52.914;-0.982;2023-02-12T07:19:30;103394.72;;;17.89;40.51
53550;BME280;67273;52.914;-0.982;2023-02-12T07:21:56;103401.84;;;17.90;40.34
53550;BME280;67273;52.914;-0.982;2023-02-12T07:24:21;103398.13;;;17.91;40.37
53550;BME280;67273;52.914;-0.982;2023-02-12T07:26:49;103406.28;;;17.91;40.37
53550;BME280;67273;52.914;-0.982;2023-02-12T07:29:14;103410.69;;;17.92;40.43
53550;BME280;67273;52.914;-0.982;2023-02-12T07:31:41;103413.41;;;17.92;40.29
53550;BME280;67273;52.914;-0.982;2023-02-12T07:34:09;103420.56;;;17.93;40.53
53550;BME280;67273;52.914;-0.982;2023-02-12T07:36:35;103408.84;;;17.93;40.36
53550;BME280;67273;52.914;-0.982;2023-02-12T07:39:01;103420.56;;;17.93;40.45
53550;BME280;67273;52.914;-0.982;2023-02-12T07:41:28;103409.00;;;17.91;40.41
53550;BME280;67273;52.914;-0.982;2023-02-12T07:43:56;103416.13;;;17.92;40.60
53550;BME280;67273;52.914;-0.982;2023-02-12T07:46:24;103415.28;;;17.92;40.72
53550;BME280;67273;52.914;-0.982;2023-02-12T07:48:54;103419.03;;;17.91;40.61
53550;BME280;67273;52.914;-0.982;2023-02-12T07:51:21;103419.03;;;17.91;40.49
53550;BME280;67273;52.914;-0.982;2023-02-12T07:53:47;103425.34;;;17.91;40.54
53550;BME280;67273;52.914;-0.982;2023-02-12T07:56:15;103426.34;;;17.90;40.48
53550;BME280;67273;52.914;-0.982;2023-02-12T07:58:42;103434.50;;;17.90;40.46
53550;BME280;67273;52.914;-0.982;2023-02-12T08:01:15;103432.81;;;17.89;40.59
53550;BME280;67273;52.914;-0.982;2023-02-12T08:03:43;103432.81;;;17.89;40.51
53550;BME280;67273;52.914;-0.982;2023-02-12T08:06:10;103436.53;;;17.88;41.24
53550;BME280;67273;52.914;-0.982;2023-02-12T08:08:36;103438.25;;;17.89;41.46
53550;BME280;67273;52.914;-0.982;2023-02-12T08:11:04;103439.25;;;17.88;41.12
53550;BME280;67273;52.914;-0.982;2023-02-12T08:13:31;103430.25;;;17.88;41.03
53550;BME280;67273;52.914;-0.982;2023-02-12T08:15:59;103438.41;;;17.88;41.04
53550;BME280;67273;52.914;-0.982;2023-02-12T08:18:26;103442.13;;;17.86;40.88
53550;BME280;67273;52.914;-0.982;2023-02-12T08:20:52;103441.28;;;17.86;40.88
53550;BME280;67273;52.914;-0.982;2023-02-12T08:23:17;103436.81;;;17.85;40.91
53550;BME280;67273;52.914;-0.982;2023-02-12T08:25:43;103445.00;;;17.85;40.83
53550;BME280;67273;52.914;-0.982;2023-02-12T08:28:09;103445.00;;;17.85;41.06
53550;BME280;67273;52.914;-0.982;2023-02-12T08:30:35;103451.47;;;17.84;40.96
53550;BME280;67273;52.914;-0.982;2023-02-12T08:33:00;103449.75;;;17.83;40.74
53550;BME280;67273;52.914;-0.982;2023-02-12T08:35:27;103442.63;;;17.82;40.89
53550;BME280;67273;52.914;-0.982;2023-02-12T08:37:53;103447.19;;;17.81;40.87
53550;BME280;67273;52.914;-0.982;2023-02-12T08:40:19;103448.06;;;17.82;40.79
53550;BME280;67273;52.914;-0.982;2023-02-12T08:42:45;103444.63;;;17.80;40.82
53550;BME280;67273;52.914;-0.982;2023-02-12T08:45:10;103450.94;;;17.80;41.08
53550;BME280;67273;52.914;-0.982;2023-02-12T08:47:36;103450.06;;;17.80;40.90
53550;BME280;67273;52.914;-0.982;2023-02-12T08:50:02;103447.53;;;17.78;40.85
53550;BME280;67273;52.914;-0.982;2023-02-12T08:52:29;103454.81;;;17.78;40.81
53550;BME280;67273;52.914;-0.982;2023-02-12T08:54:55;103450.44;;;17.77;40.90
53550;BME280;67273;52.914;-0.982;2023-02-12T08:57:21;103445.00;;;17.77;40.99
53550;BME280;67273;52.914;-0.982;2023-02-12T08:59:47;103453.16;;;17.77;41.36
53550;BME280;67273;52.914;-0.982;2023-02-12T09:02:13;103457.53;;;17.78;41.20
53550;BME280;67273;52.914;-0.982;2023-02-12T09:04:39;103452.28;;;17.76;41.34
53550;BME280;67273;52.914;-0.982;2023-02-12T09:07:06;103454.16;;;17.76;41.36
53550;BME280;67273;52.914;-0.982;2023-02-12T09:09:33;103452.47;;;17.75;41.30
53550;BME280;67273;52.914;-0.982;2023-02-12T09:11:59;103458.91;;;17.74;41.24
53550;BME280;67273;52.914;-0.982;2023-02-12T09:14:24;103453.63;;;17.72;41.34
53550;BME280;67273;52.914;-0.982;2023-02-12T09:16:51;103454.47;;;17.73;41.51
53550;BME280;67273;52.914;-0.982;2023-02-12T09:19:17;103453.78;;;17.71;41.25
53550;BME280;67273;52.914;-0.982;2023-02-12T09:21:43;103450.22;;;17.70;41.12
53550;BME280;67273;52.914;-0.982;2023-02-12T09:24:09;103450.06;;;17.72;41.24
53550;BME280;67273;52.914;-0.982;2023-02-12T09:26:38;103447.50;;;17.70;41.17
53550;BME280;67273;52.914;-0.982;2023-02-12T09:29:04;103454.81;;;17.70;41.17
53550;BME280;67273;52.914;-0.982;2023-02-12T09:31:31;103448.50;;;17.69;41.34
53550;BME280;67273;52.914;-0.982;2023-02-12T09:33:58;103444.09;;;17.68;41.09
53550;BME280;67273;52.914;-0.982;2023-02-12T09:36:25;103441.53;;;17.66;41.25
53550;BME280;67273;52.914;-0.982;2023-02-12T09:38:51;103436.28;;;17.65;41.10
53550;BME280;67273;52.914;-0.982;2023-02-12T09:44:40;103435.44;;;17.64;41.16
53550;BME280;67273;52.914;-0.982;2023-02-12T09:47:14;103441.72;;;17.65;41.26
53550;BME280;67273;52.914;-0.982;2023-02-12T09:49:54;103440.88;;;17.64;41.20
53550;BME280;67273;52.914;-0.982;2023-02-12T09:52:23;103433.72;;;17.63;41.40
53550;BME280;67273;52.914;-0.982;2023-02-12T09:54:51;103433.88;;;17.62;41.34
53550;BME280;67273;52.914;-0.982;2023-02-12T09:57:22;103439.16;;;17.63;41.21
53550;BME280;67273;52.914;-0.982;2023-02-12T09:59:55;103439.31;;;17.62;41.35
53550;BME280;67273;52.914;-0.982;2023-02-12T10:02:23;103437.63;;;17.61;41.34
53550;BME280;67273;52.914;-0.982;2023-02-12T10:04:50;103430.31;;;17.61;41.22
53550;BME280;67273;52.914;-0.982;2023-02-12T10:07:24;103428.59;;;17.60;41.29
53550;BME280;67273;52.914;-0.982;2023-02-12T10:10:11;103434.03;;;17.60;41.36
53550;BME280;67273;52.914;-0.982;2023-02-12T10:12:45;103434.03;;;17.60;41.26
53550;BME280;67273;52.914;-0.982;2023-02-12T10:15:25;103436.06;;;17.58;41.31
53550;BME280;67273;52.914;-0.982;2023-02-12T10:17:55;103437.78;;;17.59;41.29
53550;BME280;67273;52.914;-0.982;2023-02-12T10:20:35;103428.78;;;17.59;41.14
53550;BME280;67273;52.914;-0.982;2023-02-12T10:23:14;103429.63;;;17.59;41.38
53550;BME280;67273;52.914;-0.982;2023-02-12T10:25:47;103426.22;;;17.57;41.33
53550;BME280;67273;52.914;-0.982;2023-02-12T10:28:17;103432.88;;;17.63;41.82
53550;BME280;67273;52.914;-0.982;2023-02-12T10:30:52;103434.22;;;17.67;43.52
53550;BME280;67273;52.914;-0.982;2023-02-12T10:33:19;103435.44;;;17.64;46.21
53550;BME280;67273;52.914;-0.982;2023-02-12T10:35:53;103442.53;;;17.65;45.12
53550;BME280;67273;52.914;-0.982;2023-02-12T10:38:24;103446.31;;;17.64;44.64
53550;BME280;67273;52.914;-0.982;2023-02-12T10:40:51;103440.00;;;17.64;44.31
53550;BME280;67273;52.914;-0.982;2023-02-12T10:43:19;103438.31;;;17.63;44.34
53550;BME280;67273;52.914;-0.982;2023-02-12T10:45:45;103449.19;;;17.63;44.22
53550;BME280;67273;52.914;-0.982;2023-02-12T10:48:17;103447.47;;;17.62;44.13
53550;BME280;67273;52.914;-0.982;2023-02-12T10:50:58;103449.19;;;17.63;44.39
53550;BME280;67273;52.914;-0.982;2023-02-12T10:53:32;103442.03;;;17.62;44.09
53550;BME280;67273;52.914;-0.982;2023-02-12T10:56:15;103452.91;;;17.62;43.82
53550;BME280;67273;52.914;-0.982;2023-02-12T10:58:51;103449.34;;;17.61;43.61
53550;BME280;67273;52.914;-0.982;2023-02-12T11:01:20;103454.09;;;17.59;43.63
53550;BME280;67273;52.914;-0.982;2023-02-12T11:03:48;103450.34;;;17.60;43.28
53550;BME280;67273;52.914;-0.982;2023-02-12T11:06:16;103448.66;;;17.59;43.64
53550;BME280;67273;52.914;-0.982;2023-02-12T11:08:42;103448.66;;;17.59;43.27
53550;BME280;67273;52.914;-0.982;2023-02-12T11:11:10;103448.66;;;17.59;43.26
53550;BME280;67273;52.914;-0.982;2023-02-12T11:13:39;103440.66;;;17.58;43.21
53550;BME280;67273;52.914;-0.982;2023-02-12T11:16:06;103445.25;;;17.57;43.16
53550;BME280;67273;52.914;-0.982;2023-02-12T11:18:33;103440.66;;;17.58;43.27
53550;BME280;67273;52.914;-0.982;2023-02-12T11:21:02;103439.81;;;17.57;42.87
53550;BME280;67273;52.914;-0.982;2023-02-12T11:23:30;103438.94;;;17.57;42.87
53550;BME280;67273;52.914;-0.982;2023-02-12T11:25:58;103439.13;;;17.55;43.05
53550;BME280;67273;52.914;-0.982;2023-02-12T11:28:25;103442.69;;;17.56;42.93
53550;BME280;67273;52.914;-0.982;2023-02-12T11:30:54;103434.69;;;17.54;42.84
53550;BME280;67273;52.914;-0.982;2023-02-12T11:33:29;103430.09;;;17.55;42.94
53550;BME280;67273;52.914;-0.982;2023-02-12T11:35:58;103432.81;;;17.55;42.78
53550;BME280;67273;52.914;-0.982;2023-02-12T11:38:29;103434.69;;;17.54;42.63
53550;BME280;67273;52.914;-0.982;2023-02-12T11:41:03;103426.72;;;17.53;42.87
53550;BME280;67273;52.914;-0.982;2023-02-12T11:43:33;103433.00;;;17.53;42.54
53550;BME280;67273;52.914;-0.982;2023-02-12T11:46:02;103430.28;;;17.53;42.54
53550;BME280;67273;52.914;-0.982;2023-02-12T11:48:31;103421.28;;;17.53;42.61
53550;BME280;67273;52.914;-0.982;2023-02-12T11:51:00;103433.16;;;17.52;42.75
53550;BME280;67273;52.914;-0.982;2023-02-12T11:53:30;103426.88;;;17.51;42.62
53550;BME280;67273;52.914;-0.982;2023-02-12T11:55:59;103428.75;;;17.51;42.33
53550;BME280;67273;52.914;-0.982;2023-02-12T11:58:26;103426.88;;;17.51;42.50
53550;BME280;67273;52.914;-0.982;2023-02-12T12:00:58;103426.03;;;17.51;42.37
53550;BME280;67273;52.914;-0.982;2023-02-12T12:03:29;103414.31;;;17.50;42.49
53550;BME280;67273;52.914;-0.982;2023-02-12T12:06:02;103422.47;;;17.50;42.44
53550;BME280;67273;52.914;-0.982;2023-02-12T12:08:35;103420.75;;;17.49;42.45
53550;BME280;67273;52.914;-0.982;2023-02-12T12:11:09;103420.75;;;17.49;42.34
53550;BME280;67273;52.914;-0.982;2023-02-12T12:13:43;103421.59;;;17.49;42.28
53550;BME280;67273;52.914;-0.982;2023-02-12T12:16:13;103419.03;;;17.48;42.42
53550;BME280;67273;52.914;-0.982;2023-02-12T12:19:04;103418.19;;;17.47;42.40
53550;BME280;67273;52.914;-0.982;2023-02-12T12:21:57;103419.03;;;17.48;42.47
53550;BME280;67273;52.914;-0.982;2023-02-12T12:24:36;103406.47;;;17.47;42.28
53550;BME280;67273;52.914;-0.982;2023-02-12T12:27:11;103411.06;;;17.46;42.30
53550;BME280;67273;52.914;-0.982;2023-02-12T12:30:02;103403.91;;;17.45;42.04
53550;BME280;67273;52.914;-0.982;2023-02-12T12:32:33;103400.34;;;17.45;41.99
53550;BME280;67273;52.914;-0.982;2023-02-12T12:35:00;103400.34;;;17.45;42.23
53550;BME280;67273;52.914;-0.982;2023-02-12T12:37:33;103395.75;;;17.45;42.18
53550;BME280;67273;52.914;-0.982;2023-02-12T12:40:31;103394.94;;;17.45;42.10
53550;BME280;67273;52.914;-0.982;2023-02-12T12:43:12;103383.38;;;17.43;42.35
53550;BME280;67273;52.914;-0.982;2023-02-12T12:46:06;103384.22;;;17.43;42.13
53550;BME280;67273;52.914;-0.982;2023-02-12T12:48:47;103378.78;;;17.43;42.05
53550;BME280;67273;52.914;-0.982;2023-02-12T12:51:35;103375.22;;;17.43;42.38
53550;BME280;67273;52.914;-0.982;2023-02-12T12:54:23;103369.78;;;17.43;42.19
53550;BME280;67273;52.914;-0.982;2023-02-12T12:57:04;103369.78;;;17.43;41.94